Terminal Aerodrome Forecast
Issued by NWS Wilmington, OH

Current Version | Previous Version | Graphics & Text | Print | Product List | Glossary On
Versions: 1 2 3 4 5 6 7 8 9 10 11 12 13 14 15 16
000
FTUS41 KILN 030900 AAA
TAFCMH
TAF AMD
KCMH 030900Z 0309/0406 07005KT P6SM SCT080 BKN140
     FM031500 06008KT P6SM BKN040
     FM032100 05008KT P6SM VCSH BKN040
     FM040100 01006KT P6SM SCT040=

USA.gov is the U.S. government's official web portal to all federal, state and local government web resources and services.